sensor_id;sensor_type;location;lat;lon;timestamp;temperature;humidity
12981;DHT22;6555;50.468;8.480;2023-02-28T00:05:05;3.50;50.00
12981;DHT22;6555;50.468;8.480;2023-02-28T00:10:24;3.40;50.10
12981;DHT22;6555;50.468;8.480;2023-02-28T00:16:01;3.30;50.10
12981;DHT22;6555;50.468;8.480;2023-02-28T00:21:19;3.40;50.30
12981;DHT22;6555;50.468;8.480;2023-02-28T00:26:49;3.40;50.20
12981;DHT22;6555;50.468;8.480;2023-02-28T00:32:06;3.30;50.40
12981;DHT22;6555;50.468;8.480;2023-02-28T00:37:38;3.30;50.40
12981;DHT22;6555;50.468;8.480;2023-02-28T00:42:54;3.30;50.40
12981;DHT22;6555;50.468;8.480;2023-02-28T00:48:25;3.30;50.30
12981;DHT22;6555;50.468;8.480;2023-02-28T00:53:43;3.30;50.30
12981;DHT22;6555;50.468;8.480;2023-02-28T00:59:15;3.30;50.30
12981;DHT22;6555;50.468;8.480;2023-02-28T01:04:31;3.30;50.40
12981;DHT22;6555;50.468;8.480;2023-02-28T01:10:03;3.20;50.20
12981;DHT22;6555;50.468;8.480;2023-02-28T01:15:19;3.20;50.20
12981;DHT22;6555;50.468;8.480;2023-02-28T01:20:49;3.10;50.20
12981;DHT22;6555;50.468;8.480;2023-02-28T01:26:09;3.00;50.10
12981;DHT22;6555;50.468;8.480;2023-02-28T01:31:40;3.00;50.10
12981;DHT22;6555;50.468;8.480;2023-02-28T01:36:56;2.90;50.20
12981;DHT22;6555;50.468;8.480;2023-02-28T01:42:28;2.90;50.20
12981;DHT22;6555;50.468;8.480;2023-02-28T01:47:45;2.80;50.20
12981;DHT22;6555;50.468;8.480;2023-02-28T01:53:18;2.70;50.10
12981;DHT22;6555;50.468;8.480;2023-02-28T01:58:36;2.60;50.10
12981;DHT22;6555;50.468;8.480;2023-02-28T02:04:06;2.60;50.10
12981;DHT22;6555;50.468;8.480;2023-02-28T02:09:22;2.50;50.30
12981;DHT22;6555;50.468;8.480;2023-02-28T02:15:00;2.50;50.30
12981;DHT22;6555;50.468;8.480;2023-02-28T02:20:47;2.40;50.30
12981;DHT22;6555;50.468;8.480;2023-02-28T02:26:44;2.40;50.40
12981;DHT22;6555;50.468;8.480;2023-02-28T02:32:20;2.40;50.40
12981;DHT22;6555;50.468;8.480;2023-02-28T02:37:57;2.30;50.30
12981;DHT22;6555;50.468;8.480;2023-02-28T02:43:19;2.30;50.20
12981;DHT22;6555;50.468;8.480;2023-02-28T02:48:52;2.20;50.10
12981;DHT22;6555;50.468;8.480;2023-02-28T02:54:13;2.10;50.20
12981;DHT22;6555;50.468;8.480;2023-02-28T02:59:45;2.00;50.10
12981;DHT22;6555;50.468;8.480;2023-02-28T03:05:07;2.00;50.30
12981;DHT22;6555;50.468;8.480;2023-02-28T03:10:41;2.00;50.40
12981;DHT22;6555;50.468;8.480;2023-02-28T03:16:22;2.00;50.60
12981;DHT22;6555;50.468;8.480;2023-02-28T03:22:03;2.00;50.70
12981;DHT22;6555;50.468;8.480;2023-02-28T03:27:28;2.00;50.60
12981;DHT22;6555;50.468;8.480;2023-02-28T03:36:02;1.90;50.10
12981;DHT22;6555;50.468;8.480;2023-02-28T03:41:37;1.90;50.50
12981;DHT22;6555;50.468;8.480;2023-02-28T03:46:59;1.90;50.40
12981;DHT22;6555;50.468;8.480;2023-02-28T03:52:34;1.90;50.40
12981;DHT22;6555;50.468;8.480;2023-02-28T03:57:56;1.80;50.40
12981;DHT22;6555;50.468;8.480;2023-02-28T04:03:27;1.80;50.20
12981;DHT22;6555;50.468;8.480;2023-02-28T04:08:45;1.70;50.20
12981;DHT22;6555;50.468;8.480;2023-02-28T04:14:15;1.70;50.20
12981;DHT22;6555;50.468;8.480;2023-02-28T04:19:32;1.60;50.20
12981;DHT22;6555;50.468;8.480;2023-02-28T04:25:04;1.60;50.20
12981;DHT22;6555;50.468;8.480;2023-02-28T04:30:23;1.50;50.40
12981;DHT22;6555;50.468;8.480;2023-02-28T04:36:00;1.50;50.40
12981;DHT22;6555;50.468;8.480;2023-02-28T04:41:32;1.40;50.40
12981;DHT22;6555;50.468;8.480;2023-02-28T04:46:49;1.40;50.30
12981;DHT22;6555;50.468;8.480;2023-02-28T04:52:19;1.40;50.30
12981;DHT22;6555;50.468;8.480;2023-02-28T04:57:37;1.30;50.30
12981;DHT22;6555;50.468;8.480;2023-02-28T05:03:07;1.30;50.30
12981;DHT22;6555;50.468;8.480;2023-02-28T05:08:25;1.30;50.40
12981;DHT22;6555;50.468;8.480;2023-02-28T05:13:56;1.20;50.30
12981;DHT22;6555;50.468;8.480;2023-02-28T05:19:12;1.20;50.30
12981;DHT22;6555;50.468;8.480;2023-02-28T05:24:43;1.10;50.20
12981;DHT22;6555;50.468;8.480;2023-02-28T05:30:00;1.10;50.40
12981;DHT22;6555;50.468;8.480;2023-02-28T05:35:32;1.10;50.40
12981;DHT22;6555;50.468;8.480;2023-02-28T05:41:05;1.00;50.30
12981;DHT22;6555;50.468;8.480;2023-02-28T05:46:23;1.00;50.40
12981;DHT22;6555;50.468;8.480;2023-02-28T05:51:52;0.90;50.40
12981;DHT22;6555;50.468;8.480;2023-02-28T05:57:09;0.90;50.50
12981;DHT22;6555;50.468;8.480;2023-02-28T06:02:40;0.90;50.50
12981;DHT22;6555;50.468;8.480;2023-02-28T06:07:57;0.90;50.60
12981;DHT22;6555;50.468;8.480;2023-02-28T06:13:27;0.90;50.60
12981;DHT22;6555;50.468;8.480;2023-02-28T06:18:45;0.90;50.70
12981;DHT22;6555;50.468;8.480;2023-02-28T06:24:17;0.90;50.70
12981;DHT22;6555;50.468;8.480;2023-02-28T06:29:35;1.00;50.70
12981;DHT22;6555;50.468;8.480;2023-02-28T06:35:07;1.00;50.70
12981;DHT22;6555;50.468;8.480;2023-02-28T06:40:37;1.00;50.80
12981;DHT22;6555;50.468;8.480;2023-02-28T06:45:54;1.00;51.00
12981;DHT22;6555;50.468;8.480;2023-02-28T06:51:26;1.10;51.20
12981;DHT22;6555;50.468;8.480;2023-02-28T06:56:43;1.20;51.30
12981;DHT22;6555;50.468;8.480;2023-02-28T07:02:13;1.30;51.30
12981;DHT22;6555;50.468;8.480;2023-02-28T07:07:30;1.40;51.60
12981;DHT22;6555;50.468;8.480;2023-02-28T07:13:03;1.50;51.60
12981;DHT22;6555;50.468;8.480;2023-02-28T07:18:20;1.50;51.60
12981;DHT22;6555;50.468;8.480;2023-02-28T07:23:51;1.70;51.70
12981;DHT22;6555;50.468;8.480;2023-02-28T07:29:15;1.80;51.60
12981;DHT22;6555;50.468;8.480;2023-02-28T07:34:45;1.80;51.70
12981;DHT22;6555;50.468;8.480;2023-02-28T07:40:16;1.90;51.50
12981;DHT22;6555;50.468;8.480;2023-02-28T07:45:34;2.00;51.40
12981;DHT22;6555;50.468;8.480;2023-02-28T07:51:04;2.10;51.50
12981;DHT22;6555;50.468;8.480;2023-02-28T07:56:22;2.20;51.50
12981;DHT22;6555;50.468;8.480;2023-02-28T08:01:53;2.20;51.40
12981;DHT22;6555;50.468;8.480;2023-02-28T08:07:09;2.30;51.60
12981;DHT22;6555;50.468;8.480;2023-02-28T08:12:41;2.40;51.50
12981;DHT22;6555;50.468;8.480;2023-02-28T08:17:58;2.60;51.80
12981;DHT22;6555;50.468;8.480;2023-02-28T08:23:29;2.70;51.90
12981;DHT22;6555;50.468;8.480;2023-02-28T08:28:46;2.90;51.90
12981;DHT22;6555;50.468;8.480;2023-02-28T08:34:17;3.10;51.70
12981;DHT22;6555;50.468;8.480;2023-02-28T08:39:34;3.30;51.20
12981;DHT22;6555;50.468;8.480;2023-02-28T08:45:06;3.50;50.90
12981;DHT22;6555;50.468;8.480;2023-02-28T08:50:23;3.70;50.50
12981;DHT22;6555;50.468;8.480;2023-02-28T08:55:57;3.80;50.60
12981;DHT22;6555;50.468;8.480;2023-02-28T09:01:16;4.00;50.40
12981;DHT22;6555;50.468;8.480;2023-02-28T09:06:47;4.10;50.90
12981;DHT22;6555;50.468;8.480;2023-02-28T09:12:04;4.30;49.70
12981;DHT22;6555;50.468;8.480;2023-02-28T09:17:35;4.40;49.60
12981;DHT22;6555;50.468;8.480;2023-02-28T09:22:55;4.40;47.80
12981;DHT22;6555;50.468;8.480;2023-02-28T09:28:25;4.50;49.30
12981;DHT22;6555;50.468;8.480;2023-02-28T09:33:42;4.70;49.20
12981;DHT22;6555;50.468;8.480;2023-02-28T09:39:13;4.80;48.80
12981;DHT22;6555;50.468;8.480;2023-02-28T09:44:34;4.90;47.90
12981;DHT22;6555;50.468;8.480;2023-02-28T09:50:17;5.00;48.80
12981;DHT22;6555;50.468;8.480;2023-02-28T09:55:41;5.10;47.30
12981;DHT22;6555;50.468;8.480;2023-02-28T10:01:19;5.20;48.10
12981;DHT22;6555;50.468;8.480;2023-02-28T10:06:45;5.30;44.60
12981;DHT22;6555;50.468;8.480;2023-02-28T10:12:16;5.20;45.90
12981;DHT22;6555;50.468;8.480;2023-02-28T10:17:38;5.30;47.00
12981;DHT22;6555;50.468;8.480;2023-02-28T10:23:24;5.40;46.80
12981;DHT22;6555;50.468;8.480;2023-02-28T10:28:42;5.50;46.60
12981;DHT22;6555;50.468;8.480;2023-02-28T10:34:12;5.50;44.90
12981;DHT22;6555;50.468;8.480;2023-02-28T10:39:38;5.70;46.80
12981;DHT22;6555;50.468;8.480;2023-02-28T10:45:13;5.90;47.40
12981;DHT22;6555;50.468;8.480;2023-02-28T10:50:36;6.10;46.90
12981;DHT22;6555;50.468;8.480;2023-02-28T10:56:17;6.30;46.30
12981;DHT22;6555;50.468;8.480;2023-02-28T11:01:38;6.50;46.80
12981;DHT22;6555;50.468;8.480;2023-02-28T11:07:18;6.70;47.00
12981;DHT22;6555;50.468;8.480;2023-02-28T11:12:42;6.80;46.40
12981;DHT22;6555;50.468;8.480;2023-02-28T11:18:23;6.90;47.20
12981;DHT22;6555;50.468;8.480;2023-02-28T11:23:41;7.10;46.70
12981;DHT22;6555;50.468;8.480;2023-02-28T11:29:18;7.20;44.90
12981;DHT22;6555;50.468;8.480;2023-02-28T11:34:36;7.20;43.70
12981;DHT22;6555;50.468;8.480;2023-02-28T11:40:13;7.10;42.90
12981;DHT22;6555;50.468;8.480;2023-02-28T11:45:45;6.90;40.70
12981;DHT22;6555;50.468;8.480;2023-02-28T11:51:22;6.90;45.20
12981;DHT22;6555;50.468;8.480;2023-02-28T11:56:44;7.00;45.40
12981;DHT22;6555;50.468;8.480;2023-02-28T12:02:26;7.10;46.70
12981;DHT22;6555;50.468;8.480;2023-02-28T12:07:51;7.30;45.50
12981;DHT22;6555;50.468;8.480;2023-02-28T12:13:29;7.40;46.60
12981;DHT22;6555;50.468;8.480;2023-02-28T12:19:04;7.40;46.20
12981;DHT22;6555;50.468;8.480;2023-02-28T12:30:27;7.20;45.10
12981;DHT22;6555;50.468;8.480;2023-02-28T12:36:04;7.00;45.00
12981;DHT22;6555;50.468;8.480;2023-02-28T12:41:41;6.80;43.00
12981;DHT22;6555;50.468;8.480;2023-02-28T12:47:00;6.50;44.20
12981;DHT22;6555;50.468;8.480;2023-02-28T12:52:39;6.30;43.80
12981;DHT22;6555;50.468;8.480;2023-02-28T12:58:05;6.30;42.70
12981;DHT22;6555;50.468;8.480;2023-02-28T13:03:49;6.30;43.50
12981;DHT22;6555;50.468;8.480;2023-02-28T13:09:13;6.30;42.40
12981;DHT22;6555;50.468;8.480;2023-02-28T13:14:44;6.30;40.30
12981;DHT22;6555;50.468;8.480;2023-02-28T13:20:00;6.40;43.80
12981;DHT22;6555;50.468;8.480;2023-02-28T13:31:11;6.70;41.20
12981;DHT22;6555;50.468;8.480;2023-02-28T13:36:43;6.80;42.80
12981;DHT22;6555;50.468;8.480;2023-02-28T13:42:24;6.80;41.60
12981;DHT22;6555;50.468;8.480;2023-02-28T13:47:58;6.80;39.80
12981;DHT22;6555;50.468;8.480;2023-02-28T13:53:55;6.90;40.90
12981;DHT22;6555;50.468;8.480;2023-02-28T13:59:22;6.90;42.60
12981;DHT22;6555;50.468;8.480;2023-02-28T14:05:01;7.00;43.80
12981;DHT22;6555;50.468;8.480;2023-02-28T14:10:25;7.20;42.70
12981;DHT22;6555;50.468;8.480;2023-02-28T14:15:57;7.40;43.40
12981;DHT22;6555;50.468;8.480;2023-02-28T14:21:21;7.40;41.30
12981;DHT22;6555;50.468;8.480;2023-02-28T14:27:00;7.50;43.50
12981;DHT22;6555;50.468;8.480;2023-02-28T14:32:25;7.60;41.60
12981;DHT22;6555;50.468;8.480;2023-02-28T14:37:58;7.60;42.00
12981;DHT22;6555;50.468;8.480;2023-02-28T14:43:21;7.60;41.20
12981;DHT22;6555;50.468;8.480;2023-02-28T14:48:51;7.60;43.60
12981;DHT22;6555;50.468;8.480;2023-02-28T14:54:14;7.60;43.30
12981;DHT22;6555;50.468;8.480;2023-02-28T14:59:46;7.70;43.60
12981;DHT22;6555;50.468;8.480;2023-02-28T15:05:27;7.80;41.70
12981;DHT22;6555;50.468;8.480;2023-02-28T15:11:01;7.80;42.00
12981;DHT22;6555;50.468;8.480;2023-02-28T15:16:21;7.70;42.90
12981;DHT22;6555;50.468;8.480;2023-02-28T15:21:57;7.70;43.20
12981;DHT22;6555;50.468;8.480;2023-02-28T15:27:21;7.70;43.30
12981;DHT22;6555;50.468;8.480;2023-02-28T15:33:05;7.70;41.10
12981;DHT22;6555;50.468;8.480;2023-02-28T15:38:25;7.60;42.20
12981;DHT22;6555;50.468;8.480;2023-02-28T15:44:16;7.50;41.60
12981;DHT22;6555;50.468;8.480;2023-02-28T15:49:39;7.40;40.80
12981;DHT22;6555;50.468;8.480;2023-02-28T15:55:16;7.30;42.90
12981;DHT22;6555;50.468;8.480;2023-02-28T16:00:34;7.30;42.80
12981;DHT22;6555;50.468;8.480;2023-02-28T16:06:33;7.30;43.50
12981;DHT22;6555;50.468;8.480;2023-02-28T16:11:53;7.20;43.10
12981;DHT22;6555;50.468;8.480;2023-02-28T16:17:26;7.20;43.50
12981;DHT22;6555;50.468;8.480;2023-02-28T16:22:43;7.20;43.60
12981;DHT22;6555;50.468;8.480;2023-02-28T16:28:19;7.20;43.80
12981;DHT22;6555;50.468;8.480;2023-02-28T16:33:36;7.10;43.60
12981;DHT22;6555;50.468;8.480;2023-02-28T16:39:06;7.00;43.80
12981;DHT22;6555;50.468;8.480;2023-02-28T16:44:27;6.90;43.80
12981;DHT22;6555;50.468;8.480;2023-02-28T16:49:59;6.90;44.00
12981;DHT22;6555;50.468;8.480;2023-02-28T16:55:16;6.80;44.00
12981;DHT22;6555;50.468;8.480;2023-02-28T17:00:46;6.80;44.40
12981;DHT22;6555;50.468;8.480;2023-02-28T17:06:04;6.80;44.30
12981;DHT22;6555;50.468;8.480;2023-02-28T17:11:34;6.70;44.40
12981;DHT22;6555;50.468;8.480;2023-02-28T17:16:50;6.70;44.30
12981;DHT22;6555;50.468;8.480;2023-02-28T17:22:21;6.60;44.40
12981;DHT22;6555;50.468;8.480;2023-02-28T17:27:38;6.50;44.30
12981;DHT22;6555;50.468;8.480;2023-02-28T17:33:08;6.40;44.30
12981;DHT22;6555;50.468;8.480;2023-02-28T17:38:25;6.30;44.30
12981;DHT22;6555;50.468;8.480;2023-02-28T17:43:55;6.20;44.40
12981;DHT22;6555;50.468;8.480;2023-02-28T17:49:11;6.10;44.40
12981;DHT22;6555;50.468;8.480;2023-02-28T17:54:43;6.00;44.50
12981;DHT22;6555;50.468;8.480;2023-02-28T18:00:00;5.80;44.40
12981;DHT22;6555;50.468;8.480;2023-02-28T18:05:30;5.70;44.60
12981;DHT22;6555;50.468;8.480;2023-02-28T18:10:48;5.70;44.80
12981;DHT22;6555;50.468;8.480;2023-02-28T18:16:20;5.60;44.60
12981;DHT22;6555;50.468;8.480;2023-02-28T18:21:36;5.40;44.40
12981;DHT22;6555;50.468;8.480;2023-02-28T18:27:07;5.30;44.60
12981;DHT22;6555;50.468;8.480;2023-02-28T18:32:25;5.20;44.70
12981;DHT22;6555;50.468;8.480;2023-02-28T18:37:55;5.20;44.90
12981;DHT22;6555;50.468;8.480;2023-02-28T18:43:27;5.10;44.90
12981;DHT22;6555;50.468;8.480;2023-02-28T18:48:43;5.00;44.80
12981;DHT22;6555;50.468;8.480;2023-02-28T18:54:15;5.00;44.90
12981;DHT22;6555;50.468;8.480;2023-02-28T18:59:32;4.90;44.90
12981;DHT22;6555;50.468;8.480;2023-02-28T19:05:02;4.90;45.00
12981;DHT22;6555;50.468;8.480;2023-02-28T19:10:18;4.80;44.90
12981;DHT22;6555;50.468;8.480;2023-02-28T19:15:49;4.70;45.00
12981;DHT22;6555;50.468;8.480;2023-02-28T19:21:07;4.60;44.90
12981;DHT22;6555;50.468;8.480;2023-02-28T19:26:37;4.60;45.10
12981;DHT22;6555;50.468;8.480;2023-02-28T19:31:55;4.50;45.20
12981;DHT22;6555;50.468;8.480;2023-02-28T19:37:25;4.50;45.30
12981;DHT22;6555;50.468;8.480;2023-02-28T19:42:55;4.40;45.20
12981;DHT22;6555;50.468;8.480;2023-02-28T19:48:14;4.40;45.30
12981;DHT22;6555;50.468;8.480;2023-02-28T19:53:47;4.40;45.20
12981;DHT22;6555;50.468;8.480;2023-02-28T19:59:03;4.40;45.30
12981;DHT22;6555;50.468;8.480;2023-02-28T20:04:39;4.30;45.30
12981;DHT22;6555;50.468;8.480;2023-02-28T20:10:03;4.20;45.20
12981;DHT22;6555;50.468;8.480;2023-02-28T20:15:20;4.20;45.30
12981;DHT22;6555;50.468;8.480;2023-02-28T20:20:51;4.10;45.30
12981;DHT22;6555;50.468;8.480;2023-02-28T20:26:09;4.00;45.30
12981;DHT22;6555;50.468;8.480;2023-02-28T20:31:41;4.00;45.40
12981;DHT22;6555;50.468;8.480;2023-02-28T20:36:58;3.90;46.20
12981;DHT22;6555;50.468;8.480;2023-02-28T20:42:28;3.90;45.50
12981;DHT22;6555;50.468;8.480;2023-02-28T20:47:44;3.80;45.50
12981;DHT22;6555;50.468;8.480;2023-02-28T20:53:15;3.80;45.60
12981;DHT22;6555;50.468;8.480;2023-02-28T20:58:35;3.70;45.70
12981;DHT22;6555;50.468;8.480;2023-02-28T21:04:06;3.70;45.60
12981;DHT22;6555;50.468;8.480;2023-02-28T21:09:24;3.60;45.50
12981;DHT22;6555;50.468;8.480;2023-02-28T21:14:54;3.50;45.30
12981;DHT22;6555;50.468;8.480;2023-02-28T21:20:11;3.30;45.30
12981;DHT22;6555;50.468;8.480;2023-02-28T21:25:44;3.30;45.40
12981;DHT22;6555;50.468;8.480;2023-02-28T21:31:02;3.10;45.50
12981;DHT22;6555;50.468;8.480;2023-02-28T21:36:36;3.10;45.60
12981;DHT22;6555;50.468;8.480;2023-02-28T21:41:55;3.10;45.80
12981;DHT22;6555;50.468;8.480;2023-02-28T21:47:27;3.00;45.70
12981;DHT22;6555;50.468;8.480;2023-02-28T21:52:43;2.90;45.80
12981;DHT22;6555;50.468;8.480;2023-02-28T21:58:14;2.90;45.80
12981;DHT22;6555;50.468;8.480;2023-02-28T22:03:31;2.90;46.00
12981;DHT22;6555;50.468;8.480;2023-02-28T22:09:05;2.90;46.00
12981;DHT22;6555;50.468;8.480;2023-02-28T22:14:23;2.90;46.10
12981;DHT22;6555;50.468;8.480;2023-02-28T22:19:53;2.80;46.00
12981;DHT22;6555;50.468;8.480;2023-02-28T22:25:09;2.90;46.20
12981;DHT22;6555;50.468;8.480;2023-02-28T22:30:40;2.80;46.00
12981;DHT22;6555;50.468;8.480;2023-02-28T22:36:05;2.80;46.20
12981;DHT22;6555;50.468;8.480;2023-02-28T22:41:35;2.80;46.20
12981;DHT22;6555;50.468;8.480;2023-02-28T22:47:06;2.80;46.20
12981;DHT22;6555;50.468;8.480;2023-02-28T22:52:23;2.70;46.20
12981;DHT22;6555;50.468;8.480;2023-02-28T22:57:53;2.70;46.10
12981;DHT22;6555;50.468;8.480;2023-02-28T23:03:10;2.60;46.20
12981;DHT22;6555;50.468;8.480;2023-02-28T23:08:41;2.60;46.20
12981;DHT22;6555;50.468;8.480;2023-02-28T23:13:58;2.60;46.30
12981;DHT22;6555;50.468;8.480;2023-02-28T23:19:30;2.60;46.20
12981;DHT22;6555;50.468;8.480;2023-02-28T23:24:47;2.60;46.20
12981;DHT22;6555;50.468;8.480;2023-02-28T23:30:18;2.50;46.20
12981;DHT22;6555;50.468;8.480;2023-02-28T23:35:35;2.40;46.30
12981;DHT22;6555;50.468;8.480;2023-02-28T23:41:07;2.40;46.20
12981;DHT22;6555;50.468;8.480;2023-02-28T23:46:23;2.40;46.40
12981;DHT22;6555;50.468;8.480;2023-02-28T23:51:54;2.40;46.50
12981;DHT22;6555;50.468;8.480;2023-02-28T23:57:11;2.30;46.50
